»·PEaware :: N4657 KBFL-KVBG

N4657 :: KBFL-KVBG

FLIGHT INFORMATION

Flight Status: Arrived
Operator: Privately registered:
United States
More flights under this callsign
Pilot: Daniel P. (20187)
Aircraft: PILATUS PC-12 EAGLE
(PC12)
More flights by this aircraft type
Origin: KBFL Meadows
United States
Destination: KVBG Vandenberg AFB
United States
More flights between these airports :: More routes between these airports
Route: +MEADO3 EHF V183 RZS V12 GVO
File this flight plan on PilotEdge
Remarks:
Altitude:
(Current/Filed)
100ft
Speed:
(Current/Filed)
200kts
Departed: 04-Oct-18 08:07 AM
Arrived: 04-Oct-18 08:52 AM
Distance/Time
Traveled:
85nm/0:45
Distance/Time
To Go:
Arrived

Flight Plot

Page will automatically refresh every two minutes.

Flight plan parsing failed; only flown route is shown


Map Options




Map Legend


Flown Route
Filed Route
Departure Airport
Arrival Airport
Navaid (VOR, NDB)
Fix

Horizontal Profiles

Position Reports

Time Latitude Longitude Heading Altitude Ground
Speed
04-Oct-18 07:54 35.437606 -119.055137 139 501ft 0kts
04-Oct-18 07:55 35.437605 -119.055136 139 501ft 0kts
04-Oct-18 07:56 35.437605 -119.055136 139 501ft 0kts
04-Oct-18 07:57 35.437605 -119.055136 139 501ft 0kts
04-Oct-18 07:58 35.437605 -119.055136 139 501ft 0kts
04-Oct-18 07:59 35.437605 -119.055136 139 501ft 0kts
04-Oct-18 08:00 35.437605 -119.055136 139 501ft 0kts
04-Oct-18 08:01 35.437605 -119.055136 139 501ft 0kts
04-Oct-18 08:02 35.437605 -119.055136 139 501ft 0kts
04-Oct-18 08:03 35.437377 -119.057556 224 497ft 12kts
04-Oct-18 08:04 35.434592 -119.054923 137 492ft 19kts
04-Oct-18 08:05 35.430536 -119.050022 136 491ft 24kts
04-Oct-18 08:06 35.426126 -119.044666 137 481ft 7kts
04-Oct-18 08:07 35.425706 -119.044782 222 479ft 0kts
04-Oct-18 08:08 35.426009 -119.046731 315 477ft 19kts
04-Oct-18 08:09 35.442019 -119.067015 313 1440ft 100kts
04-Oct-18 08:10 35.460190 -119.090243 313 3113ft 91kts
04-Oct-18 08:11 35.478127 -119.113484 313 4831ft 108kts
04-Oct-18 08:12 35.487486 -119.145080 218 6556ft 126kts
04-Oct-18 08:13 35.450976 -119.160059 197 8233ft 169kts
04-Oct-18 08:14 35.402084 -119.177007 196 9882ft 201kts
04-Oct-18 08:15 35.343083 -119.197267 196 9956ft 233kts
04-Oct-18 08:16 35.287637 -119.234730 210 9955ft 233kts
04-Oct-18 08:17 35.232447 -119.273156 210 9955ft 234kts
04-Oct-18 08:18 35.177055 -119.311653 210 9955ft 234kts
04-Oct-18 08:19 35.122285 -119.349658 210 9955ft 234kts
04-Oct-18 08:20 35.069691 -119.386095 210 9955ft 234kts
04-Oct-18 08:21 35.019166 -119.420957 210 9956ft 234kts
04-Oct-18 08:22 34.974404 -119.451813 210 9958ft 234kts
04-Oct-18 08:23 34.937359 -119.477370 211 9958ft 233kts
04-Oct-18 08:24 34.909096 -119.496854 211 9957ft 233kts
04-Oct-18 08:25 34.878152 -119.518168 211 9955ft 233kts
04-Oct-18 08:26 34.848725 -119.538432 211 9957ft 233kts
04-Oct-18 08:27 34.820297 -119.557989 211 9959ft 233kts
04-Oct-18 08:28 34.789959 -119.578837 211 9960ft 233kts
04-Oct-18 08:29 34.760282 -119.599213 211 9959ft 233kts
04-Oct-18 08:30 34.732103 -119.618545 211 9957ft 233kts
04-Oct-18 08:31 34.680832 -119.653678 210 9955ft 233kts
04-Oct-18 08:32 34.633472 -119.686088 210 9956ft 233kts
04-Oct-18 08:33 34.588443 -119.716863 210 9956ft 233kts
04-Oct-18 08:34 34.540171 -119.749810 210 9956ft 233kts
04-Oct-18 08:35 34.512641 -119.790563 269 9523ft 222kts
04-Oct-18 08:36 34.508706 -119.849118 261 9051ft 219kts
04-Oct-18 08:37 34.495537 -119.904097 252 8354ft 202kts
04-Oct-18 08:38 34.479945 -119.963453 252 7517ft 198kts
04-Oct-18 08:39 34.466009 -120.016106 252 6767ft 197kts
04-Oct-18 08:40 34.450459 -120.074690 252 6024ft 213kts
04-Oct-18 08:41 34.443359 -120.136358 287 5999ft 202kts
04-Oct-18 08:42 34.460336 -120.195914 289 6006ft 200kts
04-Oct-18 08:43 34.477953 -120.256706 289 6007ft 179kts
04-Oct-18 08:44 34.493209 -120.303960 315 5966ft 166kts
04-Oct-18 08:45 34.521494 -120.334815 315 5304ft 164kts
04-Oct-18 08:46 34.547555 -120.366918 314 4785ft 159kts
04-Oct-18 08:47 34.575545 -120.396100 316 4207ft 160kts
04-Oct-18 08:48 34.603178 -120.428755 315 3548ft 156kts
04-Oct-18 08:49 34.624730 -120.454604 315 3012ft 118kts
04-Oct-18 08:50 34.648616 -120.479993 322 2404ft 114kts
04-Oct-18 08:51 34.671166 -120.505774 315 1833ft 114kts
04-Oct-18 08:52 34.693326 -120.532741 312 1311ft 115kts
04-Oct-18 08:53 34.715647 -120.559513 318 588ft 114kts
04-Oct-18 08:54 34.731343 -120.575913 45 333ft 15kts
04-Oct-18 08:55 34.733638 -120.572951 47 336ft 13kts
04-Oct-18 08:56 34.734704 -120.570760 136 341ft 0kts
04-Oct-18 08:57 34.734704 -120.570760 136 341ft 0kts
04-Oct-18 08:58 34.734704 -120.570760 136 341ft 0kts
04-Oct-18 08:59 34.734704 -120.570760 136 341ft 0kts
04-Oct-18 09:00 34.734704 -120.570760 136 341ft 0kts
04-Oct-18 09:01 34.734704 -120.570760 136 341ft 0kts
04-Oct-18 09:02 34.734704 -120.570760 136 341ft 0kts
04-Oct-18 09:03 34.734704 -120.570760 136 341ft 0kts
04-Oct-18 09:04 34.734704 -120.570760 136 341ft 0kts
04-Oct-18 09:05 34.734704 -120.570760 136 341ft 0kts
04-Oct-18 09:06 34.734704 -120.570760 136 341ft 0kts
04-Oct-18 09:07 34.734704 -120.570760 136 341ft 0kts
04-Oct-18 09:08 34.734704 -120.570760 136 341ft 0kts

Navigation Log

Ident Type
Flight plan parsing failed, navigation log unavailable